createdAt,value
2019-02-17T00:01:48.510Z,6.86
2019-02-17T00:04:20.588Z,6.87
2019-02-17T00:06:52.407Z,6.88
2019-02-17T00:09:24.626Z,6.86
2019-02-17T00:11:56.666Z,6.95
2019-02-17T00:14:28.462Z,6.94
2019-02-17T00:17:01.423Z,6.97
2019-02-17T00:19:33.723Z,6.98
2019-02-17T00:22:07.001Z,6.94
2019-02-17T00:24:38.847Z,6.93
2019-02-17T00:27:10.644Z,6.97
2019-02-17T00:29:42.700Z,7.02
2019-02-17T00:32:14.629Z,7.03
2019-02-17T00:34:46.462Z,6.99
2019-02-17T00:37:18.510Z,6.91
2019-02-17T00:39:50.557Z,6.91
2019-02-17T00:42:22.360Z,6.88
2019-02-17T00:44:54.144Z,6.82
2019-02-17T00:47:25.913Z,6.83
2019-02-17T00:49:59.110Z,6.84
2019-02-17T00:52:30.858Z,6.73
2019-02-17T00:55:03.258Z,6.74
2019-02-17T00:57:35.065Z,6.67
2019-02-17T01:00:08.016Z,6.63
2019-02-17T01:02:41.391Z,6.60
2019-02-17T01:05:13.657Z,6.53
2019-02-17T01:07:45.419Z,6.42
2019-02-17T01:10:17.495Z,6.39
2019-02-17T01:12:49.235Z,6.36
2019-02-17T01:15:21.111Z,6.30
2019-02-17T01:17:52.881Z,6.24
2019-02-17T01:20:24.944Z,6.22
2019-02-17T01:22:56.811Z,6.16
2019-02-17T01:25:29.058Z,6.12
2019-02-17T01:28:00.990Z,6.07
2019-02-17T01:30:33.105Z,6.05
2019-02-17T01:33:05.306Z,6.04
2019-02-17T01:35:37.439Z,6.03
2019-02-17T01:38:09.191Z,5.97
2019-02-17T01:40:41.457Z,6.01
2019-02-17T01:43:13.252Z,5.95
2019-02-17T01:45:46.584Z,5.90
2019-02-17T01:48:18.316Z,5.85
2019-02-17T01:50:50.148Z,5.86
2019-02-17T01:53:21.910Z,5.81
2019-02-17T01:55:54.131Z,5.77
2019-02-17T01:58:25.927Z,5.79
2019-02-17T02:00:57.983Z,5.72
2019-02-17T02:03:29.806Z,5.75
2019-02-17T02:06:02.018Z,5.71
2019-02-17T02:08:33.763Z,5.70
2019-02-17T02:11:06.038Z,5.66
2019-02-17T02:13:37.757Z,5.62
2019-02-17T02:16:09.772Z,5.58
2019-02-17T02:18:41.549Z,5.58
2019-02-17T02:21:13.593Z,5.54
2019-02-17T02:23:45.381Z,5.54
2019-02-17T02:26:17.424Z,5.47
2019-02-17T02:28:49.223Z,5.49
2019-02-17T02:31:21.238Z,5.49
2019-02-17T02:33:53.174Z,5.43
2019-02-17T02:36:25.171Z,5.41
2019-02-17T02:38:56.959Z,5.42
2019-02-17T02:41:34.710Z,5.35
2019-02-17T02:44:02.763Z,5.39
2019-02-17T02:46:34.628Z,5.41
2019-02-17T02:49:06.435Z,5.39
2019-02-17T02:51:38.510Z,5.41
2019-02-17T02:54:10.261Z,5.39
2019-02-17T02:56:42.310Z,5.37
2019-02-17T02:59:14.073Z,5.36
2019-02-17T03:01:46.048Z,5.35
2019-02-17T03:04:17.901Z,5.33
2019-02-17T03:07:01.596Z,5.33
2019-02-17T03:09:33.410Z,5.30
2019-02-17T03:12:05.278Z,5.28
2019-02-17T03:14:37.079Z,5.27
2019-02-17T03:17:09.095Z,5.28
2019-02-17T03:19:41.007Z,5.23
2019-02-17T03:22:14.033Z,5.16
2019-02-17T03:24:45.916Z,5.10
2019-02-17T03:27:18.168Z,5.06
2019-02-17T03:29:49.995Z,5.06
2019-02-17T03:32:21.838Z,5.00
2019-02-17T03:34:53.749Z,4.95
2019-02-17T03:37:25.708Z,4.94
2019-02-17T03:39:57.686Z,4.93
2019-02-17T03:42:30.047Z,4.96
2019-02-17T03:45:01.845Z,4.91
2019-02-17T03:47:34.090Z,4.89
2019-02-17T03:50:06.265Z,4.93
2019-02-17T03:52:38.314Z,4.89
2019-02-17T03:55:12.925Z,4.90
2019-02-17T03:57:45.205Z,4.86
2019-02-17T04:00:17.620Z,4.90
2019-02-17T04:02:50.057Z,4.87
2019-02-17T04:05:21.820Z,4.90
2019-02-17T04:07:53.884Z,4.84
2019-02-17T04:10:25.645Z,4.86
2019-02-17T04:12:57.912Z,4.84
2019-02-17T04:15:29.686Z,4.87
2019-02-17T04:18:01.748Z,4.78
2019-02-17T04:20:33.554Z,4.77
2019-02-17T04:23:05.393Z,4.72
2019-02-17T04:25:37.198Z,4.73
2019-02-17T04:28:09.288Z,4.73
2019-02-17T04:30:41.050Z,4.64
2019-02-17T04:33:13.019Z,4.60
2019-02-17T04:35:44.911Z,4.60
2019-02-17T04:38:16.774Z,4.58
2019-02-17T04:40:48.555Z,4.59
2019-02-17T04:43:21.681Z,4.60
2019-02-17T04:45:54.570Z,4.58
2019-02-17T04:48:26.552Z,4.59
2019-02-17T04:50:58.315Z,4.59
2019-02-17T04:53:30.478Z,4.54
2019-02-17T04:56:02.260Z,4.55
2019-02-17T04:58:34.468Z,4.57
2019-02-17T05:01:06.287Z,4.57
2019-02-17T05:03:38.620Z,4.52
2019-02-17T05:06:10.498Z,4.47
2019-02-17T05:08:42.358Z,4.45
2019-02-17T05:11:14.210Z,4.43
2019-02-17T05:13:47.908Z,4.37
2019-02-17T05:16:19.740Z,4.35
2019-02-17T05:18:51.954Z,4.31
2019-02-17T05:21:23.694Z,4.28
2019-02-17T05:23:55.768Z,4.18
2019-02-17T05:26:27.540Z,4.19
2019-02-17T05:28:59.794Z,4.15
2019-02-17T05:31:31.582Z,4.12
2019-02-17T05:34:03.820Z,4.09
2019-02-17T05:36:35.631Z,3.99
2019-02-17T05:39:08.169Z,4.00
2019-02-17T05:41:39.959Z,3.93
2019-02-17T05:44:12.356Z,3.92
2019-02-17T05:46:44.190Z,3.97
2019-02-17T05:49:18.816Z,3.91
2019-02-17T05:51:50.616Z,3.83
2019-02-17T05:54:22.410Z,3.84
2019-02-17T05:56:54.177Z,3.80
2019-02-17T05:59:29.215Z,3.82
2019-02-17T06:02:00.913Z,3.90
2019-02-17T06:04:32.918Z,3.83
2019-02-17T06:07:04.819Z,3.91
2019-02-17T06:09:36.849Z,3.93
2019-02-17T06:12:08.622Z,3.88
2019-02-17T06:14:41.095Z,3.88
2019-02-17T06:17:12.858Z,3.93
2019-02-17T06:19:45.011Z,3.98
2019-02-17T06:22:16.779Z,4.02
2019-02-17T06:24:48.938Z,3.99
2019-02-17T06:27:20.760Z,4.06
2019-02-17T06:29:52.653Z,3.99
2019-02-17T06:32:24.389Z,4.03
2019-02-17T06:34:56.175Z,3.99
2019-02-17T06:37:27.931Z,4.07
2019-02-17T06:39:59.733Z,4.14
2019-02-17T06:42:31.474Z,4.18
2019-02-17T06:45:03.827Z,4.27
2019-02-17T06:47:36.528Z,4.33
2019-02-17T06:50:10.022Z,4.29
2019-02-17T06:52:43.569Z,4.41
2019-02-17T06:55:25.964Z,4.47
2019-02-17T06:57:57.743Z,4.54
2019-02-17T07:00:42.045Z,4.56
2019-02-17T07:03:14.499Z,4.65
2019-02-17T07:05:56.693Z,4.82
2019-02-17T07:08:29.779Z,4.85
2019-02-17T07:11:04.322Z,4.80
2019-02-17T07:13:36.145Z,4.98
2019-02-17T07:16:07.995Z,4.96
2019-02-17T07:18:39.944Z,4.90
2019-02-17T07:21:12.085Z,4.99
2019-02-17T07:23:43.907Z,4.96
2019-02-17T07:26:17.269Z,5.02
2019-02-17T07:28:49.495Z,4.99
2019-02-17T07:31:22.590Z,5.08
2019-02-17T07:33:54.936Z,5.00
2019-02-17T07:36:27.044Z,5.07
2019-02-17T07:38:58.798Z,5.18
2019-02-17T07:41:30.958Z,5.21
2019-02-17T07:44:04.792Z,5.29
2019-02-17T07:46:37.139Z,5.46
2019-02-17T07:49:08.962Z,5.60
2019-02-17T07:51:41.117Z,5.58
2019-02-17T07:54:12.953Z,5.58
2019-02-17T07:56:44.989Z,5.72
2019-02-17T07:59:16.740Z,5.73
2019-02-17T08:01:48.565Z,5.80
2019-02-17T08:04:20.351Z,5.77
2019-02-17T08:06:52.441Z,5.80
2019-02-17T08:09:24.244Z,5.91
2019-02-17T08:11:56.047Z,5.99
2019-02-17T08:14:27.876Z,6.02
2019-02-17T08:17:00.194Z,6.09
2019-02-17T08:19:32.006Z,6.11
2019-02-17T08:22:04.236Z,6.10
2019-02-17T08:24:36.007Z,6.17
2019-02-17T08:27:07.841Z,6.39
2019-02-17T08:29:39.637Z,6.47
2019-02-17T08:32:11.971Z,6.46
2019-02-17T08:34:43.774Z,6.52
2019-02-17T08:37:15.904Z,6.69
2019-02-17T08:39:47.669Z,6.79
2019-02-17T08:42:19.714Z,6.81
2019-02-17T08:44:51.498Z,6.74
2019-02-17T08:47:23.365Z,6.70
2019-02-17T08:49:55.164Z,6.80
2019-02-17T08:52:27.274Z,6.57
2019-02-17T08:54:59.109Z,6.59
2019-02-17T08:57:31.196Z,6.91
2019-02-17T09:00:03.093Z,6.95
2019-02-17T09:02:35.938Z,7.37
2019-02-17T09:05:08.075Z,7.49
2019-02-17T09:07:39.938Z,7.85
2019-02-17T09:10:12.717Z,8.03
2019-02-17T09:12:45.129Z,8.09
2019-02-17T09:15:17.090Z,8.11
2019-02-17T09:17:49.167Z,8.11
2019-02-17T09:20:21.067Z,8.10
2019-02-17T09:22:53.189Z,8.21
2019-02-17T09:25:24.994Z,8.29
2019-02-17T09:27:56.870Z,8.27
2019-02-17T09:30:28.721Z,8.33
2019-02-17T09:33:02.049Z,8.64
2019-02-17T09:35:33.870Z,8.43
2019-02-17T09:38:06.350Z,8.48
2019-02-17T09:40:38.095Z,8.56
2019-02-17T09:43:09.920Z,8.32
2019-02-17T09:45:41.705Z,8.48
2019-02-17T09:48:13.944Z,8.58
2019-02-17T09:50:45.754Z,8.65
2019-02-17T09:53:19.133Z,8.50
2019-02-17T09:55:51.149Z,8.61
2019-02-17T09:58:23.077Z,8.54
2019-02-17T10:00:54.946Z,8.54
2019-02-17T10:03:26.793Z,8.74
2019-02-17T10:05:58.617Z,8.85
2019-02-17T10:08:30.495Z,8.61
2019-02-17T10:11:02.433Z,8.75
2019-02-17T10:13:34.508Z,8.82
2019-02-17T10:16:06.293Z,9.00
2019-02-17T10:18:38.381Z,8.98
2019-02-17T10:21:10.167Z,9.01
2019-02-17T10:23:42.071Z,9.16
2019-02-17T10:26:13.861Z,9.12
2019-02-17T10:28:45.772Z,9.15
2019-02-17T10:31:17.651Z,9.11
2019-02-17T10:33:49.884Z,9.18
2019-02-17T10:36:21.780Z,9.28
2019-02-17T10:38:53.696Z,9.40
2019-02-17T10:41:25.595Z,9.70
2019-02-17T10:43:57.874Z,9.81
2019-02-17T10:46:29.727Z,9.59
2019-02-17T10:49:02.020Z,9.57
2019-02-17T10:51:33.819Z,9.72
2019-02-17T10:54:05.946Z,9.61
2019-02-17T10:56:37.961Z,9.69
2019-02-17T10:59:09.957Z,9.71
2019-02-17T11:01:41.862Z,9.68
2019-02-17T11:04:14.096Z,9.76
2019-02-17T11:06:45.931Z,9.67
2019-02-17T11:09:21.382Z,9.79
2019-02-17T11:11:53.487Z,9.69
2019-02-17T11:14:25.552Z,9.78
2019-02-17T11:16:57.406Z,9.64
2019-02-17T11:19:29.676Z,9.71
2019-02-17T11:22:04.490Z,9.81
2019-02-17T11:24:36.409Z,9.87
2019-02-17T11:27:08.198Z,9.87
2019-02-17T11:29:40.418Z,10.04
2019-02-17T11:32:12.193Z,10.07
2019-02-17T11:34:44.066Z,9.87
2019-02-17T11:37:15.906Z,10.05
2019-02-17T11:39:47.782Z,9.97
2019-02-17T11:42:19.582Z,9.91
2019-02-17T11:44:51.466Z,9.80
2019-02-17T11:47:23.432Z,9.89
2019-02-17T11:49:55.278Z,10.07
2019-02-17T11:52:27.134Z,10.08
2019-02-17T11:54:59.220Z,10.28
2019-02-17T11:57:31.114Z,10.36
2019-02-17T12:00:03.335Z,10.36
2019-02-17T12:02:36.881Z,10.33
2019-02-17T12:05:09.927Z,10.01
2019-02-17T12:07:41.782Z,10.22
2019-02-17T12:10:14.182Z,10.21
2019-02-17T12:12:46.350Z,10.36
2019-02-17T12:15:18.503Z,10.40
2019-02-17T12:17:50.319Z,10.29
2019-02-17T12:20:41.687Z,10.29
2019-02-17T12:23:17.575Z,10.40
2019-02-17T12:25:56.662Z,10.25
2019-02-17T12:28:35.638Z,10.26
2019-02-17T12:31:08.067Z,10.23
2019-02-17T12:33:41.656Z,10.18
2019-02-17T12:36:13.622Z,10.26
2019-02-17T12:38:45.414Z,10.26
2019-02-17T12:41:17.251Z,10.30
2019-02-17T12:43:51.652Z,10.14
2019-02-17T12:46:23.640Z,10.11
2019-02-17T12:48:55.459Z,10.10
2019-02-17T12:51:28.806Z,10.09
2019-02-17T12:54:00.655Z,10.00
2019-02-17T12:56:32.472Z,9.95
2019-02-17T12:59:04.317Z,9.96
2019-02-17T13:01:36.265Z,9.92
2019-02-17T13:04:08.058Z,9.87
2019-02-17T13:06:40.216Z,9.96
2019-02-17T13:09:11.992Z,9.94
2019-02-17T13:11:44.108Z,9.87
2019-02-17T13:14:15.893Z,10.01
2019-02-17T13:16:47.943Z,10.03
2019-02-17T13:19:19.707Z,9.99
2019-02-17T13:21:51.867Z,10.00
2019-02-17T13:24:27.617Z,9.91
2019-02-17T13:26:59.943Z,9.85
2019-02-17T13:29:31.803Z,9.76
2019-02-17T13:32:03.718Z,9.64
2019-02-17T13:34:35.656Z,9.76
2019-02-17T13:37:07.948Z,9.74
2019-02-17T13:39:39.786Z,9.76
2019-02-17T13:42:11.858Z,9.72
2019-02-17T13:44:43.771Z,9.67
2019-02-17T13:47:15.664Z,9.66
2019-02-17T13:49:47.479Z,9.69
2019-02-17T13:52:19.520Z,9.63
2019-02-17T13:54:51.397Z,9.65
2019-02-17T13:57:23.284Z,9.69
2019-02-17T13:59:55.159Z,9.72
2019-02-17T14:02:27.268Z,9.86
2019-02-17T14:04:59.252Z,9.64
2019-02-17T14:07:31.614Z,9.53
2019-02-17T14:10:03.458Z,9.42
2019-02-17T14:12:35.634Z,9.38
2019-02-17T14:15:10.536Z,9.40
2019-02-17T14:17:42.633Z,9.35
2019-02-17T14:20:14.570Z,9.38
2019-02-17T14:22:47.185Z,9.43
2019-02-17T14:25:18.979Z,9.40
2019-02-17T14:27:50.992Z,9.41
2019-02-17T14:30:22.823Z,9.38
2019-02-17T14:32:54.817Z,9.41
2019-02-17T14:35:26.665Z,9.39
2019-02-17T14:37:59.050Z,9.28
2019-02-17T14:40:31.063Z,9.28
2019-02-17T14:43:03.299Z,9.33
2019-02-17T14:45:35.107Z,9.27
2019-02-17T14:48:07.083Z,9.23
2019-02-17T14:50:39.061Z,9.25
2019-02-17T14:53:11.218Z,9.30
2019-02-17T14:55:43.026Z,9.23
2019-02-17T14:58:15.068Z,9.20
2019-02-17T15:00:47.013Z,9.23
2019-02-17T15:03:22.487Z,9.25
2019-02-17T15:05:54.495Z,9.24
2019-02-17T15:08:26.912Z,9.21
2019-02-17T15:10:58.735Z,9.26
2019-02-17T15:13:30.675Z,9.25
2019-02-17T15:16:02.532Z,9.21
2019-02-17T15:18:34.564Z,9.21
2019-02-17T15:21:06.423Z,9.19
2019-02-17T15:23:40.741Z,9.17
2019-02-17T15:26:12.422Z,9.17
2019-02-17T15:28:50.669Z,9.17
2019-02-17T15:31:17.847Z,9.16
2019-02-17T15:33:50.027Z,9.09
2019-02-17T15:36:21.853Z,9.14
2019-02-17T15:38:53.858Z,9.15
2019-02-17T15:41:25.683Z,9.11
2019-02-17T15:43:58.704Z,9.10
2019-02-17T15:46:30.616Z,9.05
2019-02-17T15:49:02.496Z,9.00
2019-02-17T15:51:34.446Z,9.01
2019-02-17T15:54:09.187Z,9.02
2019-02-17T15:56:40.983Z,8.99
2019-02-17T15:59:13.047Z,9.04
2019-02-17T16:01:44.889Z,8.97
2019-02-17T16:04:27.853Z,8.96
2019-02-17T16:06:52.032Z,8.89
2019-02-17T16:09:24.510Z,8.86
2019-02-17T16:11:56.360Z,8.90
2019-02-17T16:14:28.311Z,8.87
2019-02-17T16:17:00.112Z,8.87
2019-02-17T16:19:33.698Z,8.86
2019-02-17T16:22:05.478Z,8.88
2019-02-17T16:24:38.056Z,8.89
2019-02-17T16:27:09.907Z,8.87
2019-02-17T16:29:41.950Z,8.86
2019-02-17T16:32:13.843Z,8.87
2019-02-17T16:34:45.672Z,8.87
2019-02-17T16:37:17.637Z,8.89
2019-02-17T16:39:49.464Z,8.89
2019-02-17T16:42:21.315Z,8.87
2019-02-17T16:44:53.294Z,8.86
2019-02-17T16:47:25.264Z,8.85
2019-02-17T16:49:58.698Z,8.86
2019-02-17T16:52:30.545Z,8.85
2019-02-17T16:55:07.791Z,8.83
2019-02-17T16:57:39.613Z,8.80
2019-02-17T17:00:16.313Z,8.80
2019-02-17T17:02:48.226Z,8.81
2019-02-17T17:05:20.390Z,8.80
2019-02-17T17:07:55.193Z,8.81
2019-02-17T17:10:27.351Z,8.79
2019-02-17T17:12:59.283Z,8.78
2019-02-17T17:15:32.862Z,8.77
2019-02-17T17:18:04.757Z,8.76
2019-02-17T17:20:36.729Z,8.73
2019-02-17T17:23:08.680Z,8.72
2019-02-17T17:25:41.223Z,8.71
2019-02-17T17:28:13.021Z,8.70
2019-02-17T17:30:45.666Z,8.70
2019-02-17T17:33:17.472Z,8.70
2019-02-17T17:35:49.472Z,8.70
2019-02-17T17:38:21.285Z,8.68
2019-02-17T17:40:53.331Z,8.67
2019-02-17T17:43:25.181Z,8.65
2019-02-17T17:46:04.215Z,8.65
2019-02-17T17:48:36.148Z,8.61
2019-02-17T17:51:08.458Z,8.57
2019-02-17T17:53:40.259Z,8.57
2019-02-17T17:56:12.371Z,8.61
2019-02-17T17:58:44.275Z,8.59
2019-02-17T18:01:16.506Z,8.57
2019-02-17T18:03:48.341Z,8.57
2019-02-17T18:06:21.224Z,8.57
2019-02-17T18:08:53.097Z,8.56
2019-02-17T18:11:25.179Z,8.56
2019-02-17T18:13:56.950Z,8.54
2019-02-17T18:16:28.838Z,8.54
2019-02-17T18:19:00.652Z,8.52
2019-02-17T18:21:32.602Z,8.51
2019-02-17T18:24:04.395Z,8.51
2019-02-17T18:26:36.688Z,8.49
2019-02-17T18:29:08.570Z,8.45
2019-02-17T18:31:40.785Z,8.45
2019-02-17T18:34:12.589Z,8.45
2019-02-17T18:36:44.810Z,8.46
2019-02-17T18:39:16.735Z,8.43
2019-02-17T18:41:48.741Z,8.43
2019-02-17T18:44:20.538Z,8.42
2019-02-17T18:46:52.662Z,8.42
2019-02-17T18:49:24.556Z,8.42
2019-02-17T18:51:56.682Z,8.42
2019-02-17T18:54:28.568Z,8.42
2019-02-17T18:57:08.247Z,8.40
2019-02-17T18:59:37.891Z,8.40
2019-02-17T19:02:10.207Z,8.36
2019-02-17T19:04:42.088Z,8.36
2019-02-17T19:07:14.216Z,8.35
2019-02-17T19:09:46.025Z,8.34
2019-02-17T19:12:18.468Z,8.34
2019-02-17T19:14:50.306Z,8.31
2019-02-17T19:17:22.491Z,8.32
2019-02-17T19:19:54.424Z,8.31
2019-02-17T19:22:26.468Z,8.29
2019-02-17T19:24:58.396Z,8.30
2019-02-17T19:27:30.409Z,8.28
2019-02-17T19:30:04.687Z,8.27
2019-02-17T19:32:36.749Z,8.24
2019-02-17T19:35:10.645Z,8.22
2019-02-17T19:37:42.902Z,8.22
2019-02-17T19:40:15.073Z,8.20
2019-02-17T19:42:47.405Z,8.19
2019-02-17T19:45:19.318Z,8.17
2019-02-17T19:47:51.704Z,8.18
2019-02-17T19:50:24.301Z,8.16
2019-02-17T19:52:56.431Z,8.15
2019-02-17T19:55:28.312Z,8.16
2019-02-17T19:58:00.668Z,8.12
2019-02-17T20:00:32.820Z,8.09
2019-02-17T20:03:22.108Z,8.09
2019-02-17T20:05:59.812Z,8.09
2019-02-17T20:08:31.769Z,8.09
2019-02-17T20:11:03.623Z,8.09
2019-02-17T20:13:36.102Z,8.08
2019-02-17T20:16:08.234Z,8.05
2019-02-17T20:18:40.324Z,8.02
2019-02-17T20:21:12.233Z,8.05
2019-02-17T20:23:44.370Z,8.03
2019-02-17T20:26:16.256Z,8.05
2019-02-17T20:28:48.413Z,8.05
2019-02-17T20:31:20.235Z,8.04
2019-02-17T20:33:52.312Z,8.00
2019-02-17T20:36:24.192Z,7.96
2019-02-17T20:38:56.106Z,7.98
2019-02-17T20:41:28.681Z,8.01
2019-02-17T20:44:00.990Z,8.00
2019-02-17T20:46:32.959Z,8.00
2019-02-17T20:49:05.345Z,7.98
2019-02-17T20:51:37.233Z,7.97
2019-02-17T20:54:10.682Z,7.96
2019-02-17T20:56:42.534Z,7.93
2019-02-17T20:59:14.706Z,7.90
2019-02-17T21:01:46.557Z,7.90
2019-02-17T21:04:18.749Z,7.90
2019-02-17T21:06:50.541Z,7.89
2019-02-17T21:09:22.550Z,7.87
2019-02-17T21:11:54.517Z,7.84
2019-02-17T21:14:26.996Z,7.81
2019-02-17T21:16:58.869Z,7.78
2019-02-17T21:19:30.986Z,7.80
2019-02-17T21:22:02.983Z,7.78
2019-02-17T21:24:35.166Z,7.80
2019-02-17T21:27:07.973Z,7.81
2019-02-17T21:29:40.328Z,7.81
2019-02-17T21:32:12.219Z,7.79
2019-02-17T21:34:44.461Z,7.77
2019-02-17T21:37:16.306Z,7.77
2019-02-17T21:39:48.227Z,7.75
2019-02-17T21:42:21.013Z,7.75
2019-02-17T21:44:53.017Z,7.72
2019-02-17T21:47:24.790Z,7.72
2019-02-17T21:49:56.937Z,7.70
2019-02-17T21:52:28.725Z,7.72
2019-02-17T21:55:00.608Z,7.70
2019-02-17T21:57:34.674Z,7.64
2019-02-17T22:00:08.061Z,7.60
2019-02-17T22:02:40.608Z,7.59
2019-02-17T22:05:12.609Z,7.54
2019-02-17T22:07:46.212Z,7.50
2019-02-17T22:10:20.092Z,7.48
2019-02-17T22:12:52.192Z,7.41
2019-02-17T22:15:24.460Z,7.27
2019-02-17T22:17:56.305Z,7.11
2019-02-17T22:20:28.498Z,7.14
2019-02-17T22:23:00.352Z,7.15
2019-02-17T22:25:32.424Z,7.09
2019-02-17T22:28:04.240Z,7.10
2019-02-17T22:30:39.114Z,7.08
2019-02-17T22:33:13.950Z,7.09
2019-02-17T22:35:46.131Z,6.94
2019-02-17T22:38:17.972Z,6.93
2019-02-17T22:40:52.269Z,6.97
2019-02-17T22:43:24.078Z,6.99
2019-02-17T22:45:56.443Z,6.97
2019-02-17T22:48:28.344Z,6.91
2019-02-17T22:51:00.360Z,6.93
2019-02-17T22:53:32.219Z,6.97
2019-02-17T22:56:07.258Z,6.94
2019-02-17T22:58:39.132Z,6.96
2019-02-17T23:01:15.901Z,6.91
2019-02-17T23:03:49.291Z,6.90
2019-02-17T23:06:21.421Z,6.88
2019-02-17T23:08:53.383Z,6.80
2019-02-17T23:11:25.345Z,6.80
2019-02-17T23:13:57.173Z,6.81
2019-02-17T23:16:29.718Z,6.82
2019-02-17T23:19:01.549Z,6.82
2019-02-17T23:21:33.382Z,6.84
2019-02-17T23:24:05.224Z,6.85
2019-02-17T23:26:37.111Z,6.83
2019-02-17T23:29:09.167Z,6.85
2019-02-17T23:31:41.207Z,6.84
2019-02-17T23:34:13.007Z,6.85
2019-02-17T23:36:45.085Z,6.87
2019-02-17T23:39:16.914Z,6.84
2019-02-17T23:41:48.741Z,6.87
2019-02-17T23:44:21.204Z,6.87
2019-02-17T23:46:53.207Z,6.86
2019-02-17T23:49:25.004Z,6.82
2019-02-17T23:51:57.770Z,6.82
2019-02-17T23:54:29.601Z,6.83
2019-02-17T23:57:01.543Z,6.77
2019-02-17T23:59:33.384Z,6.77
